sensor_id;sensor_type;location;lat;lon;timestamp;temperature;humidity
57030;DHT22;42920;45.306;20.448;2023-02-01T00:01:37;128.90;2252.80
57030;DHT22;42920;45.306;20.448;2023-02-01T00:04:03;128.80;2252.80
57030;DHT22;42920;45.306;20.448;2023-02-01T00:06:29;128.80;2252.80
57030;DHT22;42920;45.306;20.448;2023-02-01T00:08:55;128.60;2252.80
57030;DHT22;42920;45.306;20.448;2023-02-01T00:11:22;128.60;2252.80
57030;DHT22;42920;45.306;20.448;2023-02-01T00:13:47;128.70;2252.80
57030;DHT22;42920;45.306;20.448;2023-02-01T00:16:14;128.70;2252.80
57030;DHT22;42920;45.306;20.448;2023-02-01T00:18:44;128.60;2252.80
57030;DHT22;42920;45.306;20.448;2023-02-01T00:21:11;128.70;2252.80
57030;DHT22;42920;45.306;20.448;2023-02-01T00:23:37;128.80;2252.80
57030;DHT22;42920;45.306;20.448;2023-02-01T00:26:07;128.60;2252.80
57030;DHT22;42920;45.306;20.448;2023-02-01T00:28:36;128.60;2252.80
57030;DHT22;42920;45.306;20.448;2023-02-01T00:31:02;128.70;2252.80
57030;DHT22;42920;45.306;20.448;2023-02-01T00:33:29;128.60;2252.80
57030;DHT22;42920;45.306;20.448;2023-02-01T00:35:59;128.60;2252.80
57030;DHT22;42920;45.306;20.448;2023-02-01T00:38:29;128.70;2252.80
57030;DHT22;42920;45.306;20.448;2023-02-01T00:41:01;128.70;2252.80
57030;DHT22;42920;45.306;20.448;2023-02-01T00:43:27;128.60;2252.80
57030;DHT22;42920;45.306;20.448;2023-02-01T00:45:53;128.60;2252.80
57030;DHT22;42920;45.306;20.448;2023-02-01T00:48:18;128.60;2252.80
57030;DHT22;42920;45.306;20.448;2023-02-01T00:50:44;128.60;2252.80
57030;DHT22;42920;45.306;20.448;2023-02-01T00:53:10;128.60;2252.80
57030;DHT22;42920;45.306;20.448;2023-02-01T00:55:36;128.60;2252.80
57030;DHT22;42920;45.306;20.448;2023-02-01T00:58:01;128.60;2252.80
57030;DHT22;42920;45.306;20.448;2023-02-01T01:00:27;128.70;2252.80
57030;DHT22;42920;45.306;20.448;2023-02-01T01:02:53;128.60;2252.80
57030;DHT22;42920;45.306;20.448;2023-02-01T01:05:19;128.60;2252.80
57030;DHT22;42920;45.306;20.448;2023-02-01T01:07:44;128.50;2252.80
57030;DHT22;42920;45.306;20.448;2023-02-01T01:10:10;128.60;2252.80
57030;DHT22;42920;45.306;20.448;2023-02-01T01:12:36;128.60;2252.80
57030;DHT22;42920;45.306;20.448;2023-02-01T01:15:02;128.50;2252.80
57030;DHT22;42920;45.306;20.448;2023-02-01T01:17:27;128.60;2252.80
57030;DHT22;42920;45.306;20.448;2023-02-01T01:19:53;128.60;2252.80
57030;DHT22;42920;45.306;20.448;2023-02-01T01:22:19;128.70;2252.80
57030;DHT22;42920;45.306;20.448;2023-02-01T01:24:44;128.70;2252.80
57030;DHT22;42920;45.306;20.448;2023-02-01T01:27:10;128.80;2252.80
57030;DHT22;42920;45.306;20.448;2023-02-01T01:29:35;128.80;2252.80
57030;DHT22;42920;45.306;20.448;2023-02-01T01:32:01;128.80;2252.80
57030;DHT22;42920;45.306;20.448;2023-02-01T01:34:27;128.80;2252.80
57030;DHT22;42920;45.306;20.448;2023-02-01T01:36:52;128.90;2252.80
57030;DHT22;42920;45.306;20.448;2023-02-01T01:39:18;128.80;2252.80
57030;DHT22;42920;45.306;20.448;2023-02-01T01:41:44;128.90;2252.80
57030;DHT22;42920;45.306;20.448;2023-02-01T01:46:54;153.60;2252.80
57030;DHT22;42920;45.306;20.448;2023-02-01T01:49:20;153.60;2252.80
57030;DHT22;42920;45.306;20.448;2023-02-01T01:51:48;153.60;2252.80
57030;DHT22;42920;45.306;20.448;2023-02-01T01:54:34;153.60;2252.80
57030;DHT22;42920;45.306;20.448;2023-02-01T01:57:08;153.60;2252.80
57030;DHT22;42920;45.306;20.448;2023-02-01T01:59:36;153.60;2252.80
57030;DHT22;42920;45.306;20.448;2023-02-01T02:02:02;128.90;2252.80
57030;DHT22;42920;45.306;20.448;2023-02-01T02:04:28;153.60;2252.80
57030;DHT22;42920;45.306;20.448;2023-02-01T02:06:54;153.60;2252.80
57030;DHT22;42920;45.306;20.448;2023-02-01T02:09:21;153.70;2252.80
57030;DHT22;42920;45.306;20.448;2023-02-01T02:11:48;153.80;2252.80
57030;DHT22;42920;45.306;20.448;2023-02-01T02:14:16;153.80;2252.80
57030;DHT22;42920;45.306;20.448;2023-02-01T02:36:07;153.90;2252.80
57030;DHT22;42920;45.306;20.448;2023-02-01T02:39:03;153.90;2252.80
57030;DHT22;42920;45.306;20.448;2023-02-01T02:41:46;153.80;2252.80
57030;DHT22;42920;45.306;20.448;2023-02-01T02:50:36;153.70;2252.80
57030;DHT22;42920;45.306;20.448;2023-02-01T02:53:38;153.80;2252.80
57030;DHT22;42920;45.306;20.448;2023-02-01T02:56:26;153.80;2252.80
57030;DHT22;42920;45.306;20.448;2023-02-01T02:59:13;153.80;2252.80
57030;DHT22;42920;45.306;20.448;2023-02-01T03:01:58;153.80;2252.80
57030;DHT22;42920;45.306;20.448;2023-02-01T03:04:43;153.80;2252.80
57030;DHT22;42920;45.306;20.448;2023-02-01T03:07:13;153.90;2252.80
57030;DHT22;42920;45.306;20.448;2023-02-01T03:09:40;153.90;2252.80
57030;DHT22;42920;45.306;20.448;2023-02-01T03:12:12;153.90;2252.80
57030;DHT22;42920;45.306;20.448;2023-02-01T03:15:05;154.00;2252.80
57030;DHT22;42920;45.306;20.448;2023-02-01T03:17:37;154.00;2252.80
57030;DHT22;42920;45.306;20.448;2023-02-01T03:20:06;153.80;2252.80
57030;DHT22;42920;45.306;20.448;2023-02-01T03:22:33;153.90;2252.80
57030;DHT22;42920;45.306;20.448;2023-02-01T03:25:09;154.00;2252.80
57030;DHT22;42920;45.306;20.448;2023-02-01T03:27:55;154.00;2252.80
57030;DHT22;42920;45.306;20.448;2023-02-01T03:30:45;154.00;2252.80
57030;DHT22;42920;45.306;20.448;2023-02-01T03:33:21;153.90;2252.80
57030;DHT22;42920;45.306;20.448;2023-02-01T03:36:29;153.90;2252.80
57030;DHT22;42920;45.306;20.448;2023-02-01T03:39:03;154.00;2252.80
57030;DHT22;42920;45.306;20.448;2023-02-01T03:41:43;153.90;2252.80
57030;DHT22;42920;45.306;20.448;2023-02-01T03:46:37;153.90;2252.80
57030;DHT22;42920;45.306;20.448;2023-02-01T03:49:07;153.90;2252.80
57030;DHT22;42920;45.306;20.448;2023-02-01T03:51:36;153.80;2252.80
57030;DHT22;42920;45.306;20.448;2023-02-01T03:54:04;153.80;2252.80
57030;DHT22;42920;45.306;20.448;2023-02-01T03:56:32;153.80;2252.80
57030;DHT22;42920;45.306;20.448;2023-02-01T03:59:01;153.80;2252.80
57030;DHT22;42920;45.306;20.448;2023-02-01T04:01:30;153.80;2252.80
57030;DHT22;42920;45.306;20.448;2023-02-01T04:03:57;153.80;2252.80
57030;DHT22;42920;45.306;20.448;2023-02-01T04:06:24;153.80;2252.80
57030;DHT22;42920;45.306;20.448;2023-02-01T04:08:50;153.70;2252.80
57030;DHT22;42920;45.306;20.448;2023-02-01T04:11:16;153.80;2252.80
57030;DHT22;42920;45.306;20.448;2023-02-01T04:13:42;153.80;2252.80
57030;DHT22;42920;45.306;20.448;2023-02-01T04:16:08;153.70;2252.80
57030;DHT22;42920;45.306;20.448;2023-02-01T04:18:34;153.70;2252.80
57030;DHT22;42920;45.306;20.448;2023-02-01T04:21:00;153.70;2252.80
57030;DHT22;42920;45.306;20.448;2023-02-01T04:23:27;153.70;2252.80
57030;DHT22;42920;45.306;20.448;2023-02-01T04:25:53;153.70;2252.80
57030;DHT22;42920;45.306;20.448;2023-02-01T04:28:20;153.70;2252.80
57030;DHT22;42920;45.306;20.448;2023-02-01T04:30:45;153.70;2252.80
57030;DHT22;42920;45.306;20.448;2023-02-01T04:33:11;153.70;2252.80
57030;DHT22;42920;45.306;20.448;2023-02-01T04:35:39;153.60;2252.80
57030;DHT22;42920;45.306;20.448;2023-02-01T04:38:05;153.60;2252.80
57030;DHT22;42920;45.306;20.448;2023-02-01T04:40:32;153.60;2252.80
57030;DHT22;42920;45.306;20.448;2023-02-01T04:42:58;153.60;2252.80
57030;DHT22;42920;45.306;20.448;2023-02-01T04:45:25;153.60;2252.80
57030;DHT22;42920;45.306;20.448;2023-02-01T04:47:51;128.90;2252.80
57030;DHT22;42920;45.306;20.448;2023-02-01T04:50:16;128.90;2252.80
57030;DHT22;42920;45.306;20.448;2023-02-01T04:52:42;128.80;2252.80
57030;DHT22;42920;45.306;20.448;2023-02-01T04:55:10;128.90;2252.80
57030;DHT22;42920;45.306;20.448;2023-02-01T04:57:36;128.90;2252.80
57030;DHT22;42920;45.306;20.448;2023-02-01T05:00:05;128.90;2252.80
57030;DHT22;42920;45.306;20.448;2023-02-01T05:02:31;153.60;2252.80
57030;DHT22;42920;45.306;20.448;2023-02-01T05:04:57;153.60;2252.80
57030;DHT22;42920;45.306;20.448;2023-02-01T05:07:23;153.60;2252.80
57030;DHT22;42920;45.306;20.448;2023-02-01T05:09:49;153.60;2252.80
57030;DHT22;42920;45.306;20.448;2023-02-01T05:12:14;153.60;2252.80
57030;DHT22;42920;45.306;20.448;2023-02-01T05:14:58;153.70;2252.80
57030;DHT22;42920;45.306;20.448;2023-02-01T05:17:24;153.70;2252.80
57030;DHT22;42920;45.306;20.448;2023-02-01T05:19:50;153.70;2252.80
57030;DHT22;42920;45.306;20.448;2023-02-01T05:22:15;153.70;2252.80
57030;DHT22;42920;45.306;20.448;2023-02-01T05:24:41;153.70;2252.80
57030;DHT22;42920;45.306;20.448;2023-02-01T05:27:06;153.80;2252.80
57030;DHT22;42920;45.306;20.448;2023-02-01T05:29:32;153.80;2252.80
57030;DHT22;42920;45.306;20.448;2023-02-01T05:31:58;153.80;2252.80
57030;DHT22;42920;45.306;20.448;2023-02-01T05:34:23;153.80;2252.80
57030;DHT22;42920;45.306;20.448;2023-02-01T05:36:49;153.80;2252.80
57030;DHT22;42920;45.306;20.448;2023-02-01T05:39:14;153.80;2252.80
57030;DHT22;42920;45.306;20.448;2023-02-01T05:41:40;153.90;2252.80
57030;DHT22;42920;45.306;20.448;2023-02-01T05:44:06;153.90;2252.80
57030;DHT22;42920;45.306;20.448;2023-02-01T05:46:35;153.90;2252.80
57030;DHT22;42920;45.306;20.448;2023-02-01T05:49:01;153.90;2252.80
57030;DHT22;42920;45.306;20.448;2023-02-01T05:51:26;153.90;2252.80
57030;DHT22;42920;45.306;20.448;2023-02-01T05:53:52;153.90;2252.80
57030;DHT22;42920;45.306;20.448;2023-02-01T05:56:17;153.90;2252.80
57030;DHT22;42920;45.306;20.448;2023-02-01T05:58:43;153.90;2252.80
57030;DHT22;42920;45.306;20.448;2023-02-01T06:01:09;153.80;2252.80
57030;DHT22;42920;45.306;20.448;2023-02-01T06:03:34;153.80;2252.80
57030;DHT22;42920;45.306;20.448;2023-02-01T06:06:01;153.80;2252.80
57030;DHT22;42920;45.306;20.448;2023-02-01T06:08:27;153.80;2252.80
57030;DHT22;42920;45.306;20.448;2023-02-01T06:10:59;153.80;2252.80
57030;DHT22;42920;45.306;20.448;2023-02-01T06:13:25;153.80;2252.80
57030;DHT22;42920;45.306;20.448;2023-02-01T06:15:50;153.80;2252.80
57030;DHT22;42920;45.306;20.448;2023-02-01T06:18:16;153.70;2252.80
57030;DHT22;42920;45.306;20.448;2023-02-01T06:20:42;153.60;2252.80
57030;DHT22;42920;45.306;20.448;2023-02-01T06:23:07;153.70;2252.80
57030;DHT22;42920;45.306;20.448;2023-02-01T06:25:33;153.60;2252.80
57030;DHT22;42920;45.306;20.448;2023-02-01T06:28:02;153.60;2252.80
57030;DHT22;42920;45.306;20.448;2023-02-01T06:30:31;153.60;2252.80
57030;DHT22;42920;45.306;20.448;2023-02-01T06:32:57;128.90;2252.80
57030;DHT22;42920;45.306;20.448;2023-02-01T06:35:22;153.60;2252.80
57030;DHT22;42920;45.306;20.448;2023-02-01T06:37:48;153.60;2252.80
57030;DHT22;42920;45.306;20.448;2023-02-01T06:40:14;153.60;2252.80
57030;DHT22;42920;45.306;20.448;2023-02-01T06:42:39;128.90;2252.80
57030;DHT22;42920;45.306;20.448;2023-02-01T06:45:05;128.90;2252.80
57030;DHT22;42920;45.306;20.448;2023-02-01T06:47:32;128.90;2252.80
57030;DHT22;42920;45.306;20.448;2023-02-01T06:49:58;128.90;2252.80
57030;DHT22;42920;45.306;20.448;2023-02-01T06:52:23;128.70;2252.80
57030;DHT22;42920;45.306;20.448;2023-02-01T06:54:49;128.90;2252.80
57030;DHT22;42920;45.306;20.448;2023-02-01T06:57:14;128.90;2252.80
57030;DHT22;42920;45.306;20.448;2023-02-01T06:59:40;128.80;2252.80
57030;DHT22;42920;45.306;20.448;2023-02-01T07:02:08;128.70;2252.80
57030;DHT22;42920;45.306;20.448;2023-02-01T07:04:34;128.80;2252.80
57030;DHT22;42920;45.306;20.448;2023-02-01T07:07:00;128.80;2252.80
57030;DHT22;42920;45.306;20.448;2023-02-01T07:09:25;128.90;2252.80
57030;DHT22;42920;45.306;20.448;2023-02-01T07:11:51;128.80;2252.80
57030;DHT22;42920;45.306;20.448;2023-02-01T07:14:17;153.60;2252.80
57030;DHT22;42920;45.306;20.448;2023-02-01T07:16:42;153.60;2252.80
57030;DHT22;42920;45.306;20.448;2023-02-01T07:19:08;153.60;2252.80
57030;DHT22;42920;45.306;20.448;2023-02-01T07:21:33;153.60;2252.80
57030;DHT22;42920;45.306;20.448;2023-02-01T07:23:59;153.60;2252.80
57030;DHT22;42920;45.306;20.448;2023-02-01T07:26:25;153.60;2252.80
57030;DHT22;42920;45.306;20.448;2023-02-01T07:28:50;153.60;2252.80
57030;DHT22;42920;45.306;20.448;2023-02-01T07:31:17;153.70;2252.80
57030;DHT22;42920;45.306;20.448;2023-02-01T07:33:48;153.70;2252.80
57030;DHT22;42920;45.306;20.448;2023-02-01T07:36:17;153.60;2252.80
57030;DHT22;42920;45.306;20.448;2023-02-01T07:38:43;153.70;2252.80
57030;DHT22;42920;45.306;20.448;2023-02-01T07:41:09;153.70;2252.80
57030;DHT22;42920;45.306;20.448;2023-02-01T07:43:35;153.70;2252.80
57030;DHT22;42920;45.306;20.448;2023-02-01T07:46:02;153.70;2252.80
57030;DHT22;42920;45.306;20.448;2023-02-01T07:48:29;153.70;2252.80
57030;DHT22;42920;45.306;20.448;2023-02-01T07:53:24;153.80;2252.80
57030;DHT22;42920;45.306;20.448;2023-02-01T07:55:50;153.80;2252.80
57030;DHT22;42920;45.306;20.448;2023-02-01T07:58:16;153.80;2252.80
57030;DHT22;42920;45.306;20.448;2023-02-01T08:00:41;153.80;2252.80
57030;DHT22;42920;45.306;20.448;2023-02-01T08:03:25;153.90;2252.80
57030;DHT22;42920;45.306;20.448;2023-02-01T08:05:54;154.00;2252.80
57030;DHT22;42920;45.306;20.448;2023-02-01T08:08:20;154.10;2252.80
57030;DHT22;42920;45.306;20.448;2023-02-01T08:10:45;154.10;2252.80
57030;DHT22;42920;45.306;20.448;2023-02-01T08:13:11;154.30;2252.80
57030;DHT22;42920;45.306;20.448;2023-02-01T08:15:36;154.30;2252.80
57030;DHT22;42920;45.306;20.448;2023-02-01T08:18:03;154.40;2252.80
57030;DHT22;42920;45.306;20.448;2023-02-01T08:20:30;154.50;2252.80
57030;DHT22;42920;45.306;20.448;2023-02-01T08:22:55;179.20;2252.80
57030;DHT22;42920;45.306;20.448;2023-02-01T08:25:21;179.40;2252.80
57030;DHT22;42920;45.306;20.448;2023-02-01T08:27:47;179.40;2252.80
57030;DHT22;42920;45.306;20.448;2023-02-01T08:30:13;179.40;2252.80
57030;DHT22;42920;45.306;20.448;2023-02-01T08:32:39;179.50;2252.80
57030;DHT22;42920;45.306;20.448;2023-02-01T08:35:05;179.60;2252.80
57030;DHT22;42920;45.306;20.448;2023-02-01T08:37:31;179.70;2252.80
57030;DHT22;42920;45.306;20.448;2023-02-01T08:39:56;179.80;2252.80
57030;DHT22;42920;45.306;20.448;2023-02-01T08:42:22;180.00;2252.80
57030;DHT22;42920;45.306;20.448;2023-02-01T08:45:07;180.10;2252.80
57030;DHT22;42920;45.306;20.448;2023-02-01T08:47:36;204.80;2252.80
57030;DHT22;42920;45.306;20.448;2023-02-01T08:50:02;205.00;2252.80
57030;DHT22;42920;45.306;20.448;2023-02-01T08:52:27;205.10;2252.80
57030;DHT22;42920;45.306;20.448;2023-02-01T08:54:53;205.10;2252.80
57030;DHT22;42920;45.306;20.448;2023-02-01T08:57:19;205.20;2252.80
57030;DHT22;42920;45.306;20.448;2023-02-01T08:59:44;205.20;2252.80
57030;DHT22;42920;45.306;20.448;2023-02-01T09:02:14;205.40;2252.80
57030;DHT22;42920;45.306;20.448;2023-02-01T09:04:41;205.40;2252.80
57030;DHT22;42920;45.306;20.448;2023-02-01T09:07:10;205.50;2252.80
57030;DHT22;42920;45.306;20.448;2023-02-01T09:09:37;205.60;2252.80
57030;DHT22;42920;45.306;20.448;2023-02-01T09:12:03;205.70;2252.80
57030;DHT22;42920;45.306;20.448;2023-02-01T09:14:29;205.70;2252.80
57030;DHT22;42920;45.306;20.448;2023-02-01T09:16:55;205.60;2252.80
57030;DHT22;42920;45.306;20.448;2023-02-01T09:19:20;205.70;2252.80
57030;DHT22;42920;45.306;20.448;2023-02-01T09:21:46;205.60;2252.80
57030;DHT22;42920;45.306;20.448;2023-02-01T09:24:12;205.60;2252.80
57030;DHT22;42920;45.306;20.448;2023-02-01T09:26:37;205.50;2252.80
57030;DHT22;42920;45.306;20.448;2023-02-01T09:29:04;205.50;2252.80
57030;DHT22;42920;45.306;20.448;2023-02-01T09:31:31;205.50;2252.80
57030;DHT22;42920;45.306;20.448;2023-02-01T09:33:57;205.50;2252.80
57030;DHT22;42920;45.306;20.448;2023-02-01T09:36:23;205.40;2252.80
57030;DHT22;42920;45.306;20.448;2023-02-01T09:38:49;205.50;2252.80
57030;DHT22;42920;45.306;20.448;2023-02-01T09:41:45;205.50;2252.80
57030;DHT22;42920;45.306;20.448;2023-02-01T09:47:16;205.60;2252.80
57030;DHT22;42920;45.306;20.448;2023-02-01T09:50:08;205.50;2252.80
57030;DHT22;42920;45.306;20.448;2023-02-01T09:52:43;205.60;2252.80
57030;DHT22;42920;45.306;20.448;2023-02-01T09:58:24;205.70;2252.80
57030;DHT22;42920;45.306;20.448;2023-02-01T10:00:58;205.70;2252.80
57030;DHT22;42920;45.306;20.448;2023-02-01T10:03:29;230.40;2252.80
57030;DHT22;42920;45.306;20.448;2023-02-01T10:14:38;230.50;2252.80
57030;DHT22;42920;45.306;20.448;2023-02-01T10:17:22;230.60;2252.80
57030;DHT22;42920;45.306;20.448;2023-02-01T10:25:26;230.80;2252.80
57030;DHT22;42920;45.306;20.448;2023-02-01T10:27:52;230.80;2252.80
57030;DHT22;42920;45.306;20.448;2023-02-01T10:30:23;230.90;2252.80
57030;DHT22;42920;45.306;20.448;2023-02-01T10:32:55;230.90;2252.80
57030;DHT22;42920;45.306;20.448;2023-02-01T10:35:26;231.00;2252.80
57030;DHT22;42920;45.306;20.448;2023-02-01T10:37:53;231.00;2252.80
57030;DHT22;42920;45.306;20.448;2023-02-01T10:40:24;231.20;2252.80
57030;DHT22;42920;45.306;20.448;2023-02-01T10:43:01;231.30;2252.80
57030;DHT22;42920;45.306;20.448;2023-02-01T10:45:30;231.30;2252.80
57030;DHT22;42920;45.306;20.448;2023-02-01T10:47:57;231.20;2252.80
57030;DHT22;42920;45.306;20.448;2023-02-01T10:50:34;231.20;2252.80
57030;DHT22;42920;45.306;20.448;2023-02-01T10:55:50;231.10;2252.80
57030;DHT22;42920;45.306;20.448;2023-02-01T10:58:19;231.00;2252.80
57030;DHT22;42920;45.306;20.448;2023-02-01T11:00:57;230.90;2252.80
57030;DHT22;42920;45.306;20.448;2023-02-01T11:06:18;230.80;2227.20
57030;DHT22;42920;45.306;20.448;2023-02-01T11:08:50;230.90;2252.80
57030;DHT22;42920;45.306;20.448;2023-02-01T11:11:16;230.90;2252.80
57030;DHT22;42920;45.306;20.448;2023-02-01T11:13:42;230.90;2252.80
57030;DHT22;42920;45.306;20.448;2023-02-01T11:16:12;230.90;2252.80
57030;DHT22;42920;45.306;20.448;2023-02-01T11:18:39;230.90;2252.80
57030;DHT22;42920;45.306;20.448;2023-02-01T11:21:07;231.10;2252.80
57030;DHT22;42920;45.306;20.448;2023-02-01T11:23:33;230.90;2252.80
57030;DHT22;42920;45.306;20.448;2023-02-01T11:28:39;231.00;2252.80
57030;DHT22;42920;45.306;20.448;2023-02-01T11:31:10;231.10;2227.20
57030;DHT22;42920;45.306;20.448;2023-02-01T11:33:39;231.10;2201.60
57030;DHT22;42920;45.306;20.448;2023-02-01T11:36:28;231.00;2176.00
57030;DHT22;42920;45.306;20.448;2023-02-01T11:41:55;231.20;2176.00
57030;DHT22;42920;45.306;20.448;2023-02-01T11:44:36;231.30;2150.40
57030;DHT22;42920;45.306;20.448;2023-02-01T11:47:24;256.10;2022.40
57030;DHT22;42920;45.306;20.448;2023-02-01T11:49:53;256.20;2048.00
57030;DHT22;42920;45.306;20.448;2023-02-01T12:20:13;281.70;1868.80
57030;DHT22;42920;45.306;20.448;2023-02-01T12:33:35;281.70;1843.20
57030;DHT22;42920;45.306;20.448;2023-02-01T12:36:16;281.70;1843.20
57030;DHT22;42920;45.306;20.448;2023-02-01T12:50:06;256.70;1843.20
57030;DHT22;42920;45.306;20.448;2023-02-01T12:52:47;256.70;1868.80
57030;DHT22;42920;45.306;20.448;2023-02-01T12:57:56;256.90;1894.40
57030;DHT22;42920;45.306;20.448;2023-02-01T13:00:32;256.90;1894.40
57030;DHT22;42920;45.306;20.448;2023-02-01T13:03:23;281.70;1868.80
57030;DHT22;42920;45.306;20.448;2023-02-01T13:06:04;281.70;1843.20
57030;DHT22;42920;45.306;20.448;2023-02-01T13:08:40;281.70;1843.20
57030;DHT22;42920;45.306;20.448;2023-02-01T13:11:23;281.70;1843.20
57030;DHT22;42920;45.306;20.448;2023-02-01T13:16:35;281.80;1843.20
57030;DHT22;42920;45.306;20.448;2023-02-01T13:22:05;281.70;1843.20
57030;DHT22;42920;45.306;20.448;2023-02-01T13:24:36;281.70;1843.20
57030;DHT22;42920;45.306;20.448;2023-02-01T13:27:03;281.70;1868.80
57030;DHT22;42920;45.306;20.448;2023-02-01T13:29:29;281.80;1894.40
57030;DHT22;42920;45.306;20.448;2023-02-01T13:32:11;281.90;1868.80
57030;DHT22;42920;45.306;20.448;2023-02-01T13:34:49;281.70;1817.60
57030;DHT22;42920;45.306;20.448;2023-02-01T13:42:50;281.60;1843.20
57030;DHT22;42920;45.306;20.448;2023-02-01T13:45:22;281.70;1843.20
57030;DHT22;42920;45.306;20.448;2023-02-01T13:47:51;281.70;1817.60
57030;DHT22;42920;45.306;20.448;2023-02-01T13:50:33;281.70;1843.20
57030;DHT22;42920;45.306;20.448;2023-02-01T13:55:51;281.60;1817.60
57030;DHT22;42920;45.306;20.448;2023-02-01T13:58:36;256.90;1792.00
57030;DHT22;42920;45.306;20.448;2023-02-01T14:03:56;256.90;1817.60
57030;DHT22;42920;45.306;20.448;2023-02-01T14:11:53;256.90;1792.00
57030;DHT22;42920;45.306;20.448;2023-02-01T14:19:36;256.90;1766.40
57030;DHT22;42920;45.306;20.448;2023-02-01T14:24:41;256.80;1817.60
57030;DHT22;42920;45.306;20.448;2023-02-01T14:29:42;256.80;1868.80
57030;DHT22;42920;45.306;20.448;2023-02-01T14:34:50;256.80;1868.80
57030;DHT22;42920;45.306;20.448;2023-02-01T14:47:50;256.70;1868.80
57030;DHT22;42920;45.306;20.448;2023-02-01T14:56:07;256.70;1945.60
57030;DHT22;42920;45.306;20.448;2023-02-01T14:58:56;256.60;1971.20
57030;DHT22;42920;45.306;20.448;2023-02-01T15:01:28;256.60;1996.80
57030;DHT22;42920;45.306;20.448;2023-02-01T15:06:46;256.50;2022.40
57030;DHT22;42920;45.306;20.448;2023-02-01T15:12:25;256.40;2022.40
57030;DHT22;42920;45.306;20.448;2023-02-01T15:17:40;256.20;2073.60
57030;DHT22;42920;45.306;20.448;2023-02-01T15:20:18;256.20;2099.20
57030;DHT22;42920;45.306;20.448;2023-02-01T15:22:58;256.10;2150.40
57030;DHT22;42920;45.306;20.448;2023-02-01T15:25:32;256.10;2176.00
57030;DHT22;42920;45.306;20.448;2023-02-01T15:27:58;256.00;2176.00
57030;DHT22;42920;45.306;20.448;2023-02-01T15:30:29;256.00;2201.60
57030;DHT22;42920;45.306;20.448;2023-02-01T15:35:44;231.30;2201.60
57030;DHT22;42920;45.306;20.448;2023-02-01T15:41:18;231.30;2252.80
57030;DHT22;42920;45.306;20.448;2023-02-01T15:44:08;231.20;2252.80
57030;DHT22;42920;45.306;20.448;2023-02-01T15:46:39;231.20;2252.80
57030;DHT22;42920;45.306;20.448;2023-02-01T15:51:49;231.10;2252.80
57030;DHT22;42920;45.306;20.448;2023-02-01T15:54:20;231.20;2252.80
57030;DHT22;42920;45.306;20.448;2023-02-01T15:56:53;231.20;2252.80
57030;DHT22;42920;45.306;20.448;2023-02-01T15:59:25;231.10;2252.80
57030;DHT22;42920;45.306;20.448;2023-02-01T16:01:54;231.00;2252.80
57030;DHT22;42920;45.306;20.448;2023-02-01T16:04:21;230.80;2252.80
57030;DHT22;42920;45.306;20.448;2023-02-01T16:09:20;230.60;2252.80
57030;DHT22;42920;45.306;20.448;2023-02-01T16:11:58;230.50;2252.80
57030;DHT22;42920;45.306;20.448;2023-02-01T16:14:25;230.40;2252.80
57030;DHT22;42920;45.306;20.448;2023-02-01T16:16:52;230.50;2252.80
57030;DHT22;42920;45.306;20.448;2023-02-01T16:19:18;230.50;2252.80
57030;DHT22;42920;45.306;20.448;2023-02-01T16:21:45;230.50;2252.80
57030;DHT22;42920;45.306;20.448;2023-02-01T16:24:11;230.50;2252.80
57030;DHT22;42920;45.306;20.448;2023-02-01T16:26:36;230.50;2252.80
57030;DHT22;42920;45.306;20.448;2023-02-01T16:29:04;230.50;2252.80
57030;DHT22;42920;45.306;20.448;2023-02-01T16:31:37;230.50;2252.80
57030;DHT22;42920;45.306;20.448;2023-02-01T16:34:04;230.60;2252.80
57030;DHT22;42920;45.306;20.448;2023-02-01T16:36:31;230.60;2252.80
57030;DHT22;42920;45.306;20.448;2023-02-01T16:38:58;230.60;2252.80
57030;DHT22;42920;45.306;20.448;2023-02-01T16:41:24;230.60;2252.80
57030;DHT22;42920;45.306;20.448;2023-02-01T16:43:52;230.60;2252.80
57030;DHT22;42920;45.306;20.448;2023-02-01T16:46:20;205.70;2252.80
57030;DHT22;42920;45.306;20.448;2023-02-01T16:48:53;205.70;2252.80
57030;DHT22;42920;45.306;20.448;2023-02-01T16:51:20;205.60;2252.80
57030;DHT22;42920;45.306;20.448;2023-02-01T16:53:46;205.50;2252.80
57030;DHT22;42920;45.306;20.448;2023-02-01T16:56:16;205.50;2252.80
57030;DHT22;42920;45.306;20.448;2023-02-01T16:58:42;205.60;2252.80
57030;DHT22;42920;45.306;20.448;2023-02-01T17:01:13;205.70;2252.80
57030;DHT22;42920;45.306;20.448;2023-02-01T17:03:39;205.60;2252.80
57030;DHT22;42920;45.306;20.448;2023-02-01T17:06:05;205.60;2252.80
57030;DHT22;42920;45.306;20.448;2023-02-01T17:08:36;205.50;2252.80
57030;DHT22;42920;45.306;20.448;2023-02-01T17:11:04;205.60;2252.80
57030;DHT22;42920;45.306;20.448;2023-02-01T17:13:31;205.60;2252.80
57030;DHT22;42920;45.306;20.448;2023-02-01T17:19:03;205.40;2252.80
57030;DHT22;42920;45.306;20.448;2023-02-01T17:21:34;205.40;2252.80
57030;DHT22;42920;45.306;20.448;2023-02-01T17:24:03;205.20;2252.80
57030;DHT22;42920;45.306;20.448;2023-02-01T17:26:29;205.10;2252.80
57030;DHT22;42920;45.306;20.448;2023-02-01T17:28:54;205.10;2252.80
57030;DHT22;42920;45.306;20.448;2023-02-01T17:31:20;205.10;2252.80
57030;DHT22;42920;45.306;20.448;2023-02-01T17:33:45;205.00;2252.80
57030;DHT22;42920;45.306;20.448;2023-02-01T17:36:14;204.90;2252.80
57030;DHT22;42920;45.306;20.448;2023-02-01T17:38:40;204.90;2252.80
57030;DHT22;42920;45.306;20.448;2023-02-01T17:41:09;204.90;2252.80
57030;DHT22;42920;45.306;20.448;2023-02-01T17:43:35;204.90;2252.80
57030;DHT22;42920;45.306;20.448;2023-02-01T17:46:02;204.90;2252.80
57030;DHT22;42920;45.306;20.448;2023-02-01T17:48:28;204.90;2252.80
57030;DHT22;42920;45.306;20.448;2023-02-01T17:50:54;204.80;2252.80
57030;DHT22;42920;45.306;20.448;2023-02-01T17:53:27;180.10;2252.80
57030;DHT22;42920;45.306;20.448;2023-02-01T17:55:53;180.10;2252.80
57030;DHT22;42920;45.306;20.448;2023-02-01T17:58:19;180.00;2252.80
57030;DHT22;42920;45.306;20.448;2023-02-01T18:00:46;180.00;2252.80